Weather at Wausau Downtown Airport

Public forecast

Using degrees Fahrenheit for public forecast. Weather courtesy of forecast.io.

Current aviation weather report (METAR) for Wausau Downtown Airport

Retrieved 2021/06/13 17:54 UTC (18 minutes ago):

KAUW 131754Z AUTO 29006KT 10SM CLR 28/09 A3000 RMK AO2 SLP156 T02830094 10289 20178 58012

Aviation forecast (TAF) for Wausau Downtown Airport

Retrieved 2021/06/13 18:33 UTC (0 seconds ago):

TAF KAUW 131730Z 1318/1418 27008G16KT P6SM SKC FM132100 28008G15KT P6SM SCT090 FM140200 04009KT P6SM VCSH SCT040 BKN080 TEMPO 1402/1406 3SM TSRA BKN015CB FM140600 36005KT P6SM SCT080 WS020/35030KT FM141100 31005KT P6SM SKC FM141600 32010G16KT P6SM SCT050